createdAt,value
2019-01-02T00:00:03.165Z,18.47
2019-01-02T00:02:08.371Z,18.83
2019-01-02T00:04:14.402Z,16.77
2019-01-02T00:06:39.496Z,11.47
2019-01-02T00:08:47.987Z,22.27
2019-01-02T00:10:54.367Z,15.77
2019-01-02T00:13:03.246Z,18.90
2019-01-02T00:15:08.918Z,15.37
2019-01-02T00:17:18.937Z,15.70
2019-01-02T00:19:31.666Z,16.07
2019-01-02T00:21:38.287Z,19.90
2019-01-02T00:23:43.115Z,12.20
2019-01-02T00:25:48.353Z,20.30
2019-01-02T00:27:58.610Z,15.90
2019-01-02T00:30:05.718Z,19.43
2019-01-02T00:34:26.728Z,15.17
2019-01-02T00:36:34.255Z,18.97
2019-01-02T00:38:40.274Z,18.57
2019-01-02T00:40:45.488Z,22.50
2019-01-02T00:42:55.299Z,16.07
2019-01-02T00:45:03.445Z,18.93
2019-01-02T00:47:09.901Z,24.60
2019-01-02T00:49:17.220Z,19.57
2019-01-02T00:51:28.281Z,16.67
2019-01-02T00:53:33.497Z,18.93
2019-01-02T00:55:38.236Z,15.37
2019-01-02T00:57:43.048Z,16.23
2019-01-02T00:59:47.884Z,21.03
2019-01-02T01:01:53.139Z,14.73
2019-01-02T01:03:58.674Z,17.70
2019-01-02T01:06:05.925Z,18.67
2019-01-02T01:08:10.832Z,19.27
2019-01-02T01:10:17.782Z,16.53
2019-01-02T01:12:22.865Z,23.43
2019-01-02T01:14:27.671Z,18.67
2019-01-02T01:16:33.967Z,20.33
2019-01-02T01:18:39.222Z,18.67
2019-01-02T01:20:44.088Z,24.93
2019-01-02T01:22:48.920Z,24.63
2019-01-02T01:24:53.865Z,17.63
2019-01-02T01:26:58.637Z,20.07
2019-01-02T01:29:03.755Z,21.97
2019-01-02T01:31:11.064Z,18.10
2019-01-02T01:33:16.250Z,17.83
2019-01-02T01:35:21.609Z,21.00
2019-01-02T01:37:26.800Z,19.10
2019-01-02T01:39:31.593Z,15.90
2019-01-02T01:41:36.866Z,27.13
2019-01-02T01:43:41.975Z,23.10
2019-01-02T01:45:46.825Z,21.83
2019-01-02T01:47:51.689Z,17.07
2019-01-02T01:50:00.176Z,20.43
2019-01-02T01:52:05.057Z,18.13
2019-01-02T01:54:10.940Z,22.87
2019-01-02T01:56:16.102Z,24.63
2019-01-02T01:58:20.871Z,21.17
2019-01-02T02:00:26.521Z,22.40
2019-01-02T02:02:31.480Z,22.37
2019-01-02T02:04:36.391Z,19.20
2019-01-02T02:06:42.168Z,21.20
2019-01-02T02:08:46.924Z,18.87
2019-01-02T02:10:54.235Z,25.50
2019-01-02T02:12:59.001Z,29.33
2019-01-02T02:15:03.965Z,21.30
2019-01-02T02:17:09.089Z,22.73
2019-01-02T02:19:14.418Z,19.27
2019-01-02T02:21:19.171Z,23.37
2019-01-02T02:23:24.395Z,19.57
2019-01-02T02:25:29.779Z,20.20
2019-01-02T02:27:34.849Z,22.63
2019-01-02T02:29:40.070Z,22.50
2019-01-02T02:31:46.426Z,19.77
2019-01-02T02:33:51.272Z,24.87
2019-01-02T02:35:57.004Z,23.43
2019-01-02T02:38:02.181Z,23.27
2019-01-02T02:40:08.265Z,21.20
2019-01-02T02:42:13.125Z,26.43
2019-01-02T02:44:18.365Z,24.70
2019-01-02T02:46:23.575Z,28.80
2019-01-02T02:48:28.421Z,19.37
2019-01-02T02:50:34.019Z,27.10
2019-01-02T02:52:43.036Z,21.33
2019-01-02T02:54:49.985Z,24.37
2019-01-02T02:56:59.703Z,24.93
2019-01-02T02:59:05.010Z,21.07
2019-01-02T03:01:10.319Z,23.47
2019-01-02T03:03:15.493Z,26.27
2019-01-02T03:05:20.458Z,25.30
2019-01-02T03:07:25.279Z,29.17
2019-01-02T03:09:30.903Z,23.80
2019-01-02T03:11:35.723Z,31.23
2019-01-02T03:13:40.508Z,25.33
2019-01-02T03:15:46.294Z,27.17
2019-01-02T03:17:54.538Z,23.40
2019-01-02T03:19:59.500Z,30.77
2019-01-02T03:22:04.931Z,23.47
2019-01-02T03:24:09.493Z,25.63
2019-01-02T03:26:14.313Z,24.37
2019-01-02T03:28:19.113Z,31.73
2019-01-02T03:30:27.125Z,30.03
2019-01-02T03:32:32.327Z,29.33
2019-01-02T03:34:37.563Z,27.63
2019-01-02T03:36:45.857Z,29.37
2019-01-02T03:38:50.887Z,25.83
2019-01-02T03:40:56.124Z,28.37
2019-01-02T03:43:01.047Z,28.63
2019-01-02T03:45:07.671Z,29.87
2019-01-02T03:47:12.910Z,28.90
2019-01-02T03:49:17.659Z,23.30
2019-01-02T03:51:22.486Z,21.10
2019-01-02T03:53:29.270Z,25.80
2019-01-02T03:55:34.172Z,28.57
2019-01-02T03:57:39.594Z,31.60
2019-01-02T03:59:44.423Z,29.97
2019-01-02T04:01:49.161Z,24.53
2019-01-02T04:03:53.964Z,26.80
2019-01-02T04:06:05.062Z,29.03
2019-01-02T04:08:12.011Z,25.13
2019-01-02T04:10:16.815Z,28.03
2019-01-02T04:12:23.115Z,23.97
2019-01-02T04:14:27.931Z,24.93
2019-01-02T04:16:32.727Z,21.73
2019-01-02T04:18:37.880Z,22.10
2019-01-02T04:20:45.541Z,30.30
2019-01-02T04:22:50.640Z,30.07
2019-01-02T04:24:57.095Z,25.50
2019-01-02T04:27:04.656Z,29.53
2019-01-02T04:29:09.508Z,32.13
2019-01-02T04:31:16.587Z,31.17
2019-01-02T04:33:24.210Z,21.07
2019-01-02T04:35:29.048Z,25.77
2019-01-02T04:37:34.239Z,25.73
2019-01-02T04:39:40.530Z,23.80
2019-01-02T04:41:45.439Z,26.97
2019-01-02T04:43:50.508Z,23.67
2019-01-02T04:45:55.337Z,27.17
2019-01-02T04:48:00.345Z,25.33
2019-01-02T04:50:07.979Z,20.60
2019-01-02T04:52:12.766Z,29.30
2019-01-02T04:54:17.543Z,25.67
2019-01-02T04:56:22.687Z,21.83
2019-01-02T04:58:27.522Z,26.80
2019-01-02T05:00:32.282Z,26.47
2019-01-02T05:02:38.372Z,24.77
2019-01-02T05:04:43.156Z,23.93
2019-01-02T05:06:49.741Z,22.63
2019-01-02T05:08:56.091Z,24.23
2019-01-02T05:11:00.832Z,26.47
2019-01-02T05:13:05.662Z,22.80
2019-01-02T05:15:13.706Z,23.93
2019-01-02T05:17:18.586Z,22.07
2019-01-02T05:19:25.832Z,22.87
2019-01-02T05:21:31.056Z,20.80
2019-01-02T05:23:35.966Z,27.17
2019-01-02T05:25:40.816Z,23.97
2019-01-02T05:27:47.181Z,19.57
2019-01-02T05:29:52.081Z,23.03
2019-01-02T05:31:56.862Z,25.30
2019-01-02T05:34:03.551Z,24.07
2019-01-02T05:36:09.964Z,27.13
2019-01-02T05:38:16.066Z,26.83
2019-01-02T05:40:23.630Z,26.60
2019-01-02T05:42:28.481Z,29.40
2019-01-02T05:44:33.494Z,23.70
2019-01-02T05:46:40.092Z,20.63
2019-01-02T05:48:47.584Z,17.63
2019-01-02T05:50:52.530Z,28.47
2019-01-02T05:52:57.767Z,31.90
2019-01-02T05:55:02.517Z,24.30
2019-01-02T05:57:08.108Z,28.70
2019-01-02T05:59:13.793Z,23.33
2019-01-02T06:01:19.762Z,23.97
2019-01-02T06:03:29.056Z,24.20
2019-01-02T06:05:34.021Z,28.10
2019-01-02T06:07:39.267Z,29.47
2019-01-02T06:09:44.601Z,28.57
2019-01-02T06:11:49.973Z,32.23
2019-01-02T06:13:57.367Z,28.30
2019-01-02T06:16:08.256Z,24.83
2019-01-02T06:18:15.570Z,27.23
2019-01-02T06:20:23.324Z,31.70
2019-01-02T06:22:28.184Z,24.17
2019-01-02T06:24:33.448Z,22.67
2019-01-02T06:26:38.387Z,27.73
2019-01-02T06:28:43.194Z,24.80
2019-01-02T06:30:50.897Z,28.27
2019-01-02T06:32:55.787Z,19.43
2019-01-02T06:35:00.678Z,23.60
2019-01-02T06:37:08.943Z,30.33
2019-01-02T06:39:13.766Z,25.37
2019-01-02T06:41:18.608Z,25.70
2019-01-02T06:43:23.913Z,24.97
2019-01-02T06:45:50.795Z,23.43
2019-01-02T06:48:11.340Z,24.87
2019-01-02T06:50:31.595Z,29.40
2019-01-02T06:52:54.386Z,27.73
2019-01-02T06:55:08.578Z,22.23
2019-01-02T06:57:27.232Z,27.57
2019-01-02T06:59:41.951Z,24.57
2019-01-02T07:02:26.851Z,27.47
2019-01-02T07:04:41.409Z,29.47
2019-01-02T07:07:14.631Z,30.23
2019-01-02T07:09:45.045Z,28.60
2019-01-02T07:12:01.779Z,30.33
2019-01-02T07:14:26.774Z,26.63
2019-01-02T07:16:55.475Z,29.40
2019-01-02T07:19:17.589Z,22.80
2019-01-02T07:21:52.880Z,30.47
2019-01-02T07:24:19.239Z,29.13
2019-01-02T07:26:34.789Z,28.97
2019-01-02T07:28:53.444Z,28.70
2019-01-02T07:31:10.623Z,29.07
2019-01-02T07:33:40.858Z,26.60
2019-01-02T07:36:43.561Z,26.60
2019-01-02T07:39:17.595Z,26.93
2019-01-02T07:42:05.759Z,29.47
2019-01-02T07:45:02.025Z,27.60
2019-01-02T07:47:49.416Z,27.13
2019-01-02T07:50:45.144Z,30.67
2019-01-02T07:53:47.607Z,28.10
2019-01-02T07:56:35.472Z,31.53
2019-01-02T07:59:28.721Z,32.40
2019-01-02T08:02:03.607Z,25.27
2019-01-02T08:04:52.955Z,27.40
2019-01-02T08:07:43.694Z,28.97
2019-01-02T08:10:29.773Z,35.97
2019-01-02T08:13:23.911Z,26.67
2019-01-02T08:16:48.918Z,25.67
2019-01-02T08:19:48.416Z,24.20
2019-01-02T08:22:30.334Z,25.63
2019-01-02T08:25:38.494Z,16.50
2019-01-02T08:28:24.623Z,31.13
2019-01-02T08:30:55.935Z,23.83
2019-01-02T08:33:49.171Z,23.93
2019-01-02T08:36:36.502Z,29.00
2019-01-02T08:39:29.398Z,24.40
2019-01-02T08:51:48.910Z,21.03
2019-01-02T08:54:33.586Z,23.37
2019-01-02T09:00:43.886Z,26.93
2019-01-02T09:03:52.260Z,26.23
2019-01-02T09:07:10.166Z,14.33
2019-01-02T09:09:59.598Z,17.93
2019-01-02T09:13:00.609Z,16.03
2019-01-02T09:15:32.765Z,20.03
2019-01-02T09:18:32.230Z,20.73
2019-01-02T09:21:20.879Z,21.57
2019-01-02T09:24:09.856Z,20.07
2019-01-02T09:27:07.437Z,20.93
2019-01-02T09:30:06.861Z,21.13
2019-01-02T09:33:04.225Z,24.77
2019-01-02T09:36:18.982Z,21.03
2019-01-02T09:39:33.012Z,21.00
2019-01-02T09:42:24.298Z,20.37
2019-01-02T09:45:05.561Z,23.50
2019-01-02T09:48:44.198Z,22.67
2019-01-02T09:51:26.430Z,17.73
2019-01-02T09:54:24.307Z,18.80
2019-01-02T09:59:05.239Z,22.60
2019-01-02T10:01:09.041Z,22.40
2019-01-02T10:03:25.656Z,21.00
2019-01-02T10:05:44.975Z,24.97
2019-01-02T10:10:24.821Z,21.27
2019-01-02T10:12:55.440Z,24.60
2019-01-02T10:15:38.661Z,18.53
2019-01-02T10:17:55.464Z,23.47
2019-01-02T10:20:21.207Z,23.10
2019-01-02T10:22:40.562Z,26.57
2019-01-02T10:24:58.860Z,18.57
2019-01-02T10:27:15.059Z,24.07
2019-01-02T10:29:57.852Z,22.03
2019-01-02T10:32:40.727Z,27.13
2019-01-02T10:34:57.206Z,17.97
2019-01-02T10:37:13.973Z,24.00
2019-01-02T10:42:41.542Z,22.10
2019-01-02T10:44:58.418Z,20.00
2019-01-02T10:47:14.624Z,22.90
2019-01-02T10:49:33.856Z,17.83
2019-01-02T10:51:51.904Z,11.23
2019-01-02T10:54:35.688Z,15.30
2019-01-02T10:57:19.595Z,10.83
2019-01-02T11:00:02.471Z,11.87
2019-01-02T11:02:46.164Z,12.57
2019-01-02T11:05:02.390Z,16.67
2019-01-02T11:07:23.327Z,16.20
2019-01-02T11:10:06.181Z,15.63
2019-01-02T11:12:50.258Z,16.40
2019-01-02T11:15:12.763Z,14.63
2019-01-02T11:17:29.637Z,18.83
2019-01-02T11:20:13.487Z,14.70
2019-01-02T11:22:44.286Z,13.77
2019-01-02T11:25:46.820Z,13.87
2019-01-02T11:28:08.776Z,14.33
2019-01-02T11:32:42.257Z,15.50
2019-01-02T11:35:00.297Z,14.20
2019-01-02T11:37:16.285Z,16.03
2019-01-02T11:39:32.576Z,15.27
2019-01-02T11:41:49.207Z,15.30
2019-01-02T11:44:06.228Z,15.80
2019-01-02T11:47:07.868Z,11.17
2019-01-02T11:49:40.378Z,13.17
2019-01-02T11:52:00.372Z,18.40
2019-01-02T11:54:18.315Z,13.20
2019-01-02T11:56:35.569Z,15.23
2019-01-02T11:58:52.437Z,14.23
2019-01-02T12:03:25.672Z,11.40
2019-01-02T12:05:32.594Z,13.50
2019-01-02T12:07:57.785Z,12.20
2019-01-02T12:15:26.949Z,15.17
2019-01-02T12:17:43.067Z,12.37
2019-01-02T12:23:02.537Z,11.47
2019-01-02T12:25:20.453Z,13.00
2019-01-02T12:27:36.854Z,10.27
2019-01-02T12:29:54.237Z,9.47
2019-01-02T12:32:10.520Z,10.07
2019-01-02T12:36:44.269Z,11.47
2019-01-02T12:39:02.550Z,9.30
2019-01-02T12:41:18.873Z,10.77
2019-01-02T12:43:35.598Z,9.30
2019-01-02T12:45:52.203Z,7.57
2019-01-02T12:48:08.850Z,7.97
2019-01-02T12:50:16.115Z,8.83
2019-01-02T12:52:42.296Z,7.70
2019-01-02T12:54:59.552Z,7.00
2019-01-02T12:57:18.185Z,8.57
2019-01-02T12:59:42.113Z,8.43
2019-01-02T13:07:44.430Z,9.63
2019-01-02T13:10:02.203Z,7.03
2019-01-02T13:12:19.216Z,7.57
2019-01-02T13:14:35.383Z,8.40
2019-01-02T13:17:15.279Z,6.37
2019-01-02T13:20:01.906Z,5.63
2019-01-02T13:30:48.349Z,5.30
2019-01-02T13:33:31.751Z,8.43
2019-01-02T13:36:15.038Z,7.27
2019-01-02T13:38:31.564Z,6.27
2019-01-02T13:41:15.183Z,9.80
2019-01-02T13:46:41.169Z,6.57
2019-01-02T13:48:59.301Z,7.93
2019-01-02T13:51:28.607Z,5.17
2019-01-02T13:56:26.985Z,9.63
2019-01-02T13:59:09.852Z,8.23
2019-01-02T14:01:48.259Z,8.10
2019-01-02T14:03:54.218Z,8.80
2019-01-02T14:06:10.914Z,6.47
2019-01-02T14:08:30.092Z,8.80
2019-01-02T14:10:47.190Z,5.97
2019-01-02T14:15:53.605Z,7.77
2019-01-02T14:18:11.379Z,8.93
2019-01-02T14:20:24.179Z,7.73
2019-01-02T14:22:49.835Z,9.37
2019-01-02T14:25:30.734Z,7.57
2019-01-02T14:27:47.427Z,8.00
2019-01-02T14:30:03.405Z,9.33
2019-01-02T14:32:24.991Z,9.87
2019-01-02T14:34:46.368Z,8.10
2019-01-02T14:37:03.025Z,6.40
2019-01-02T14:39:29.590Z,11.97
2019-01-02T14:41:49.645Z,6.70
2019-01-02T14:44:08.589Z,5.20
2019-01-02T14:46:25.688Z,8.17
2019-01-02T14:48:42.158Z,9.43
2019-01-02T14:51:00.759Z,8.17
2019-01-02T14:53:17.374Z,6.87
2019-01-02T14:55:34.925Z,7.43
2019-01-02T14:57:59.141Z,5.67
2019-01-02T15:03:29.091Z,7.53
2019-01-02T15:05:45.500Z,7.77
2019-01-02T15:10:21.090Z,7.37
2019-01-02T15:12:44.902Z,5.53
2019-01-02T15:15:05.613Z,9.43
2019-01-02T15:17:11.858Z,7.63
2019-01-02T15:30:15.687Z,5.63
2019-01-02T15:32:43.345Z,8.17
2019-01-02T15:35:02.824Z,7.50
2019-01-02T15:37:14.545Z,6.73
2019-01-02T15:41:45.851Z,8.53
2019-01-02T15:44:09.811Z,7.70
2019-01-02T15:50:01.840Z,5.17
2019-01-02T15:51:50.284Z,8.83
2019-01-02T15:57:18.963Z,7.60
2019-01-02T15:59:39.480Z,6.10
2019-01-02T16:01:57.782Z,9.30
2019-01-02T16:04:18.114Z,6.77
2019-01-02T16:16:14.345Z,5.10
2019-01-02T16:18:01.357Z,5.27
2019-01-02T16:20:47.708Z,7.90
2019-01-02T16:31:15.452Z,6.23
2019-01-02T16:34:49.968Z,7.50
2019-01-02T16:36:34.814Z,6.57
2019-01-02T16:39:13.424Z,7.10
2019-01-02T16:41:42.452Z,6.87
2019-01-02T16:47:17.966Z,5.17
2019-01-02T16:49:47.935Z,7.80
2019-01-02T16:51:36.089Z,6.20
2019-01-02T16:53:59.135Z,8.30
2019-01-02T16:56:17.397Z,7.73
2019-01-02T16:59:03.171Z,6.40
2019-01-02T17:04:17.159Z,7.03
2019-01-02T17:06:14.682Z,5.73
2019-01-02T17:16:40.460Z,6.40
2019-01-02T17:19:05.235Z,7.43
2019-01-02T17:21:29.666Z,7.20
2019-01-02T17:23:53.016Z,4.77
2019-01-02T17:26:15.322Z,5.13
2019-01-02T17:28:35.421Z,7.10
2019-01-02T17:44:05.711Z,5.27
2019-01-02T17:52:03.479Z,5.80
2019-01-02T17:54:16.053Z,8.03
2019-01-02T17:57:07.420Z,6.03
2019-01-02T17:59:37.484Z,8.93
2019-01-02T18:01:56.568Z,5.03
2019-01-02T18:04:21.969Z,6.70
2019-01-02T18:09:27.085Z,6.63
2019-01-02T18:11:43.606Z,9.53
2019-01-02T18:13:50.714Z,7.03
2019-01-02T18:18:11.739Z,6.07
2019-01-02T18:20:38.271Z,7.47
2019-01-02T18:31:38.777Z,5.73
2019-01-02T18:36:46.599Z,7.80
2019-01-02T18:39:07.605Z,8.43
2019-01-02T18:41:27.400Z,7.73
2019-01-02T18:44:20.565Z,9.40
2019-01-02T18:46:56.756Z,7.20
2019-01-02T18:50:05.779Z,6.53
2019-01-02T18:52:32.809Z,6.13
2019-01-02T18:55:06.213Z,7.53
2019-01-02T18:57:30.507Z,5.97
2019-01-02T19:05:12.671Z,6.23
2019-01-02T19:13:10.777Z,5.90
2019-01-02T19:18:21.382Z,11.80
2019-01-02T19:20:44.597Z,8.37
2019-01-02T19:23:07.852Z,6.70
2019-01-02T19:25:29.491Z,10.80
2019-01-02T19:27:58.308Z,7.53
2019-01-02T19:33:27.601Z,8.93
2019-01-02T19:35:27.013Z,6.03
2019-01-02T19:40:51.471Z,8.43
2019-01-02T19:52:09.347Z,7.40
2019-01-02T19:58:58.933Z,7.07
2019-01-02T20:01:26.951Z,8.97
2019-01-02T20:06:40.091Z,9.33
2019-01-02T20:16:36.274Z,7.93
2019-01-02T20:24:20.988Z,5.60
2019-01-02T20:26:42.844Z,6.67
2019-01-02T20:29:17.262Z,6.27
2019-01-02T20:32:09.327Z,3.97
2019-01-02T20:34:00.742Z,5.27
2019-01-02T20:36:52.327Z,4.43
2019-01-02T20:38:44.005Z,6.70
2019-01-02T20:41:04.857Z,7.73
2019-01-02T20:46:25.038Z,3.83
2019-01-02T20:56:56.142Z,5.60
2019-01-02T21:02:41.375Z,5.10
2019-01-02T21:04:54.052Z,6.90
2019-01-02T21:07:13.415Z,5.37
2019-01-02T21:09:41.074Z,5.60
2019-01-02T21:14:50.992Z,6.97
2019-01-02T21:17:12.612Z,7.73
2019-01-02T21:19:31.176Z,5.57
2019-01-02T21:22:32.316Z,5.80
2019-01-02T21:24:25.379Z,7.67
2019-01-02T21:29:48.114Z,8.67
2019-01-02T21:40:16.222Z,5.77
2019-01-02T21:44:57.225Z,5.93
2019-01-02T21:47:20.130Z,3.40
2019-01-02T21:55:13.443Z,5.07
2019-01-02T21:57:35.659Z,3.27
2019-01-02T21:59:55.506Z,3.50
2019-01-02T22:05:13.029Z,5.17
2019-01-02T22:13:29.481Z,7.40
2019-01-02T22:15:52.850Z,4.47
2019-01-02T22:18:25.244Z,5.87
2019-01-02T22:21:31.473Z,2.53
2019-01-02T22:23:08.669Z,7.10
2019-01-02T22:25:54.450Z,4.40
2019-01-02T22:28:01.016Z,6.63
2019-01-02T22:30:26.835Z,7.00
2019-01-02T22:35:54.311Z,5.40
2019-01-02T22:40:53.593Z,3.33
2019-01-02T22:45:49.276Z,6.97
2019-01-02T22:48:37.675Z,6.40
2019-01-02T22:50:56.167Z,7.90
2019-01-02T23:02:09.906Z,6.10
2019-01-02T23:04:39.187Z,8.63
2019-01-02T23:06:58.896Z,9.83
2019-01-02T23:18:19.743Z,8.37
2019-01-02T23:21:08.442Z,7.43
2019-01-02T23:23:40.412Z,7.40
2019-01-02T23:32:34.005Z,5.63
2019-01-02T23:43:15.861Z,6.37
2019-01-02T23:45:51.160Z,5.50
2019-01-02T23:48:33.857Z,6.63
2019-01-02T23:51:15.505Z,7.13
2019-01-02T23:57:33.456Z,6.83
